Latest Weather Observations for Fingal

IDT60801

Issued at 10:02 am EST Wednesday 28 September 2016 (issued every 30 minutes, with the page automatically refreshed every 10 minutes)

About weather observations | Map of weather stations | Latest weather observations for TAS | Other Formats
Station Details ID: 092012 Name: FINGAL (LEGGE STREET) Lat: -41.64 Lon: 147.97 Height: 237.0 m
Data from the previous 72 hours. | See also: Recent months at Fingal
Date/Time
EST
Temp
°C
App
Temp
°C
Dew
Point
°C
Rel
Hum
%
Delta-T
°C
Wind Press
QNH
hPa
Press
MSL
hPa
Rain since
9am
mm
Dir  Spd
km/h
Gust
km/h
Spd
kts
Gust
kts
28/10:00am 13.8 11.5 5.7 58 3.9 NNE 7 13 4 7 - - 0.0
28/09:30am 13.1 11.7 7.3 68 2.9 N 4 9 2 5 - - 0.0
28/09:00am 12.1 11.3 8.2 77 1.9 N 2 6 1 3 - - 0.0
28/08:30am 9.9 7.7 6.4 79 1.7 N 7 11 4 6 - - 0.0
28/08:00am 9.2 7.2 6.3 82 1.4 NNE 6 9 3 5 - - 0.0
28/07:30am 7.5 5.1 5.3 86 1.0 SSE 7 11 4 6 - - 0.0
28/07:00am 4.8 1.6 3.3 90 0.6 SW 9 11 5 6 - - 0.0
28/06:30am 4.1 1.8 2.9 92 0.5 W 4 7 2 4 - - 0.0
28/06:00am 3.9 1.2 2.6 91 0.5 WSW 6 7 3 4 - - 0.0
28/05:30am 4.0 2.1 2.8 92 0.5 SSE 2 6 1 3 - - 0.0
28/05:00am 3.8 1.9 2.6 92 0.5 SW 2 7 1 4 - - 0.0
28/04:30am 3.6 2.0 2.4 92 0.5 CALM 0 0 0 0 - - 0.0
28/04:00am 3.6 1.6 2.3 91 0.5 S 2 6 1 3 - - 0.0
28/03:30am 4.0 1.3 2.7 91 0.5 E 6 11 3 6 - - 0.0
28/03:00am 4.2 2.3 2.9 91 0.5 NW 2 6 1 3 - - 0.0
28/02:30am 4.5 1.7 3.3 92 0.5 WSW 7 11 4 6 - - 0.0
28/02:00am 3.3 0.3 2.1 92 0.5 SSW 7 9 4 5 - - 0.0
28/01:30am 3.4 1.7 2.1 91 0.5 CALM 0 0 0 0 - - 0.0
28/01:00am 4.0 1.7 2.8 92 0.5 SSE 4 7 2 4 - - 0.0
28/12:30am 4.1 2.2 2.8 91 0.5 SE 2 6 1 3 - - 0.0
28/12:00am 4.6 3.1 3.1 90 0.6 CALM 0 0 0 0 - - 0.0
 
Date/Time
EST
Temp
°C
App
Temp
°C
Dew
Point
°C
Rel
Hum
%
Delta-T
°C
Wind Press
QNH
hPa
Press
MSL
hPa
Rain since
9am
mm
Dir  Spd
km/h
Gust
km/h
Spd
kts
Gust
kts
27/11:30pm 5.6 4.3 3.9 89 0.7 CALM 0 6 0 3 - - 0.0
27/11:00pm 6.5 4.0 5.0 90 0.7 SW 7 11 4 6 - - 0.0
27/10:30pm 5.6 3.2 4.2 91 0.6 SSE 6 11 3 6 - - 0.0
27/10:00pm 6.5 5.3 4.8 89 0.8 CALM 0 0 0 0 - - 0.0
27/09:30pm 7.2 6.2 5.5 89 0.8 CALM 0 0 0 0 - - 0.0
27/09:00pm 7.9 5.9 6.2 89 0.8 SSE 6 7 3 4 - - 0.0
27/08:30pm 8.0 6.7 6.0 87 0.9 WNW 2 6 1 3 - - 0.0
27/08:00pm 8.4 6.3 6.0 85 1.1 SE 6 7 3 4 - - 0.0
27/07:30pm 9.2 8.5 6.8 85 1.1 CALM 0 0 0 0 - - 0.0
27/07:00pm 9.9 8.0 6.6 80 1.6 ENE 6 7 3 4 - - 0.0
27/06:30pm 10.4 8.3 6.5 77 1.9 NNE 7 11 4 6 - - 0.0
27/06:00pm 11.4 9.4 6.9 74 2.2 NE 7 9 4 5 - - 0.0
27/05:30pm 11.9 9.6 7.4 74 2.2 N 9 13 5 7 - - 0.0
27/05:00pm 12.9 9.8 7.1 68 2.8 NNE 13 19 7 10 - - 0.0
27/04:30pm 13.5 9.9 6.8 64 3.3 NNE 15 20 8 11 - - 0.0
27/04:00pm 14.1 10.8 7.9 66 3.1 NNE 15 24 8 13 - - 0.0
27/03:30pm 14.5 11.2 6.3 58 4.0 N 13 19 7 10 - - 0.0
27/03:00pm 13.7 9.4 5.1 56 4.1 N 17 20 9 11 - - 0.0
27/02:30pm 15.5 13.4 6.5 55 4.4 NW 7 13 4 7 - - 0.0
27/02:00pm 15.2 12.9 4.6 49 5.0 NW 6 13 3 7 - - 0.0
27/01:30pm 14.7 12.1 4.4 50 4.8 WSW 7 11 4 6 - - 0.0
27/01:00pm 14.4 12.2 6.0 57 4.1 NNE 7 11 4 6 - - 0.0
27/12:30pm 13.5 10.3 4.9 56 4.0 WNW 11 20 6 11 - - 0.0
27/12:00pm 14.0 11.5 4.0 51 4.6 WNW 6 9 3 5 - - 0.0
27/11:30am 13.8 10.9 2.7 47 5.0 N 7 13 4 7 - - 0.0
27/11:00am 13.5 11.0 4.6 55 4.2 NNW 7 11 4 6 - - 0.0
27/10:30am 12.2 10.5 6.0 66 3.0 WSW 4 11 2 6 - - 0.0
27/10:00am 10.1 7.9 6.3 77 1.8 WNW 7 9 4 5 - - 0.0
27/09:30am 8.4 6.7 6.0 85 1.1 WNW 4 9 2 5 - - 0.0
27/09:00am 6.4 3.9 5.0 91 0.6 NNE 7 9 4 5 - - 11.6
27/08:30am 5.6 3.7 4.9 95 0.3 ENE 4 7 2 4 - - 11.6
27/08:00am 3.7 1.8 3.0 95 0.3 SSE 2 7 1 4 - - 11.6
27/07:30am 2.5 0.8 1.6 94 0.4 CALM 0 6 0 3 - - 11.6
27/07:00am 1.9 -0.3 1.0 94 0.3 W 2 7 1 4 - - 11.6
27/06:30am 1.1 -0.9 0.2 94 0.3 CALM 0 0 0 0 - - 11.6
27/06:00am 1.5 -0.4 0.6 94 0.3 CALM 0 0 0 0 - - 11.6
27/05:30am 1.9 -0.3 1.0 94 0.3 S 2 7 1 4 - - 11.6
27/05:00am 2.0 0.2 1.1 94 0.3 CALM 0 0 0 0 - - 11.6
27/04:30am 1.9 0.1 1.0 94 0.3 CALM 0 0 0 0 - - 11.6
27/04:00am 1.9 0.1 1.0 94 0.3 CALM 0 0 0 0 - - 11.6
27/03:30am 2.1 0.3 1.2 94 0.3 CALM 0 0 0 0 - - 11.4
27/03:00am 2.7 1.0 1.8 94 0.4 CALM 0 0 0 0 - - 11.4
27/02:30am 2.8 1.1 1.9 94 0.4 CALM 0 0 0 0 - - 11.4
27/02:00am 2.9 0.5 2.0 94 0.4 W 4 9 2 5 - - 11.4
27/01:30am 3.3 0.5 2.3 93 0.4 SSW 6 7 3 4 - - 11.4
27/01:00am 3.3 0.9 2.3 93 0.4 SSW 4 6 2 3 - - 11.4
27/12:30am 3.9 1.2 2.9 93 0.4 SW 6 9 3 5 - - 11.4
27/12:00am 4.2 1.4 3.2 93 0.4 SW 7 11 4 6 - - 11.4
 
Date/Time
EST
Temp
°C
App
Temp
°C
Dew
Point
°C
Rel
Hum
%
Delta-T
°C
Wind Press
QNH
hPa
Press
MSL
hPa
Rain since
9am
mm
Dir  Spd
km/h
Gust
km/h
Spd
kts
Gust
kts
26/11:30pm 3.9 1.2 2.7 92 0.5 SSE 6 7 3 4 - - 11.4
26/11:00pm 4.5 2.3 3.3 92 0.5 SSW 4 7 2 4 - - 11.4
26/10:30pm 5.3 2.7 4.1 92 0.5 SW 7 9 4 5 - - 11.4
26/10:00pm 5.4 3.3 4.1 91 0.6 S 4 9 2 5 - - 11.4
26/09:30pm 6.2 3.3 4.8 91 0.6 SSW 9 11 5 6 - - 11.4
26/09:00pm 6.5 4.2 4.8 89 0.8 WSW 6 9 3 5 - - 11.2
26/08:30pm 7.0 4.8 5.3 89 0.8 WSW 6 9 3 5 - - 11.2
26/08:00pm 7.0 4.1 4.7 85 1.0 SSE 9 13 5 7 - - 11.2
26/07:30pm 7.5 5.3 5.5 87 0.9 SSE 6 9 3 5 - - 8.4
26/07:00pm 8.2 5.4 5.3 82 1.3 S 9 13 5 7 - - 4.6
26/06:30pm 8.5 5.5 5.8 83 1.2 S 11 17 6 9 - - 3.4
26/06:00pm 9.3 8.6 6.9 85 1.1 CALM 0 7 0 4 - - 2.2
26/05:30pm 9.4 7.9 6.7 83 1.3 ENE 4 6 2 3 - - 0.8
26/05:00pm 9.9 8.0 6.8 81 1.5 NE 6 7 3 4 - - 0.8
26/04:30pm 10.8 7.6 5.1 68 2.6 ENE 11 22 6 12 - - 0.6
26/04:00pm 12.5 10.2 4.7 59 3.6 N 6 11 3 6 - - 0.0
26/03:30pm 12.6 9.8 5.3 61 3.4 NE 9 15 5 8 - - 0.0
26/03:00pm 13.5 10.3 5.2 57 3.9 NE 11 20 6 11 - - 0.0
26/02:30pm 13.2 9.7 5.4 59 3.7 NE 13 19 7 10 - - 0.0
26/02:00pm 13.0 9.5 5.4 60 3.6 NE 13 20 7 11 - - 0.0
26/01:30pm 12.8 8.4 4.8 58 3.7 NE 17 24 9 13 - - 0.0
26/01:00pm 12.9 8.8 4.6 57 3.9 NE 15 26 8 14 - - 0.0
26/12:30pm 12.5 8.9 5.0 60 3.5 NE 13 24 7 13 - - 0.0
26/12:00pm 12.6 8.9 4.6 58 3.7 NE 13 20 7 11 - - 0.0
26/11:30am 11.9 8.5 5.8 66 2.9 NE 13 19 7 10 - - 0.0
26/11:00am 11.9 7.9 4.9 62 3.2 NE 15 20 8 11 - - 0.0
26/10:30am 11.5 7.6 5.4 66 2.8 NE 15 22 8 12 - - 0.0
26/10:00am 10.5 6.5 4.9 68 2.6 NNE 15 22 8 12 - - 0.0
26/09:30am 10.1 6.9 5.3 72 2.2 NNE 11 15 6 8 - - 0.0
26/09:00am 9.1 6.9 6.0 81 1.4 NNE 7 11 4 6 - - 0.2
26/08:30am 7.8 5.4 5.4 85 1.1 E 7 9 4 5 - - 0.2
26/08:00am 6.0 3.6 4.5 90 0.7 SE 6 7 3 4 - - 0.2
26/07:30am 4.8 3.4 3.8 93 0.4 CALM 0 0 0 0 - - 0.2
26/07:00am 3.8 2.3 2.8 93 0.4 CALM 0 0 0 0 - - 0.2
26/06:30am 2.8 1.1 1.6 92 0.5 CALM 0 0 0 0 - - 0.2
26/06:00am 3.0 1.3 1.7 91 0.5 CALM 0 0 0 0 - - 0.2
26/05:30am 3.0 1.3 1.7 91 0.5 CALM 0 0 0 0 - - 0.2
26/05:00am 3.4 1.7 2.1 91 0.5 CALM 0 0 0 0 - - 0.2
26/04:30am 3.3 1.2 2.0 91 0.5 WSW 2 6 1 3 - - 0.2
26/04:00am 3.3 1.6 1.8 90 0.6 CALM 0 0 0 0 - - 0.2
26/03:30am 3.7 2.0 2.1 89 0.6 CALM 0 0 0 0 - - 0.2
26/03:00am 3.7 1.7 2.2 90 0.6 WSW 2 7 1 4 - - 0.2
26/02:30am 3.5 1.8 2.0 90 0.6 CALM 0 0 0 0 - - 0.2
26/02:00am 3.6 1.9 1.6 87 0.8 CALM 0 0 0 0 - - 0.2
26/01:30am 4.2 1.4 1.9 85 0.9 WSW 6 9 3 5 - - 0.2
26/01:00am 4.2 2.6 2.6 89 0.7 CALM 0 6 0 3 - - 0.2
26/12:30am 3.6 1.5 2.0 89 0.6 W 2 6 1 3 - - 0.2
26/12:00am 3.7 0.9 2.1 89 0.6 SSE 6 7 3 4 - - 0.2
 
Date/Time
EST
Temp
°C
App
Temp
°C
Dew
Point
°C
Rel
Hum
%
Delta-T
°C
Wind Press
QNH
hPa
Press
MSL
hPa
Rain since
9am
mm
Dir  Spd
km/h
Gust
km/h
Spd
kts
Gust
kts
25/11:30pm 4.0 1.2 2.0 87 0.8 S 6 7 3 4 - - 0.2
25/11:00pm 5.1 2.2 2.8 85 1.0 SW 7 9 4 5 - - 0.2
25/10:30pm 5.3 3.8 2.8 84 1.0 CALM 0 6 0 3 - - 0.2
25/10:00pm 5.7 3.1 3.0 83 1.1 SW 6 7 3 4 - - 0.2
25/09:30pm 7.0 4.6 4.3 83 1.2 SW 6 9 3 5 - - 0.2
25/09:00pm 7.3 4.8 5.0 85 1.0 WSW 7 11 4 6 - - 0.2
25/08:30pm 7.9 5.8 6.0 88 0.9 W 6 7 3 4 - - 0.2
25/08:00pm 8.6 6.6 6.4 86 1.0 S 6 9 3 5 - - 0.2
25/07:30pm 9.0 7.1 6.6 85 1.1 ESE 6 7 3 4 - - 0.2
25/07:00pm 9.7 7.8 6.6 81 1.5 ENE 6 7 3 4 - - 0.2
25/06:30pm 10.0 8.0 6.9 81 1.5 NE 7 11 4 6 - - 0.2
25/06:00pm 10.6 7.5 7.1 79 1.7 NNE 13 20 7 11 - - 0.2
25/05:30pm 11.6 7.4 7.5 76 2.0 NNE 19 28 10 15 - - 0.2
25/05:00pm 12.6 9.8 7.1 69 2.7 NNW 11 19 6 10 - - 0.2
25/04:30pm 14.3 10.5 1.6 42 5.6 WSW 11 17 6 9 - - 0.2
25/04:00pm 13.6 9.4 1.9 45 5.2 W 13 22 7 12 - - 0.2
25/03:30pm 14.6 9.2 1.5 41 5.8 WSW 19 30 10 16 - - 0.2
25/03:00pm 14.8 10.1 3.0 45 5.4 WSW 17 24 9 13 - - 0.2
25/02:30pm 14.7 9.9 4.7 51 4.7 WSW 19 30 10 16 - - 0.2
25/02:00pm 14.3 10.3 5.1 54 4.4 WSW 15 24 8 13 - - 0.2
25/01:30pm 13.5 9.1 4.6 55 4.2 WSW 17 32 9 17 - - 0.2
25/01:00pm 12.2 6.3 3.7 56 3.8 WSW 24 37 13 20 - - 0.2
25/12:30pm 13.4 8.6 4.6 55 4.1 WSW 19 33 10 18 - - 0.2
25/12:00pm 14.6 10.4 5.9 56 4.2 WSW 17 30 9 16 - - 0.2
25/11:30am 15.5 12.0 5.4 51 4.9 SW 13 26 7 14 - - 0.2
25/11:00am 15.2 11.5 6.5 56 4.3 WSW 15 24 8 13 - - 0.2
25/10:30am 14.6 11.2 5.9 56 4.2 SW 13 22 7 12 - - 0.2

Other Formats:

Comma delimited format used in spreadsheet applications
http://www.bom.gov.au/fwo/IDT60801/IDT60801.95974.axf

JavaScript Object Notation format (JSON) in row-major order
http://www.bom.gov.au/fwo/IDT60801/IDT60801.95974.json